メインページ
METAR-TAF:

METAR-TAF

空港 :

Payam

キャラジ, イラン

緯度: 35-46-34N, 経度: 050-49-36E, 海抜: 1271m

現時点の気象観測

当レポートは57分前の04:00(UTC)に作成
北西の風 14kt
気温 2°C
湿度 93%
気圧 1010 hPa
視程: 8000m
高度3000ftの雲は散在している
高度9000ftの千切れ雲あり

METAR: OIIP 220400Z 31014KT 8000 SCT030 BKN090 02/01 Q1010

時間: 09:27 (04:57 UTC)


TAF: 見つかりません

4,000以上の空港の気象観測と天気予報(METAR報とTAF報)

利用可能な観測所は地図上に黄色い丸と赤い丸で示す。

丸の上にカーソルを重ねると観測所名を参照できる。

次にクリックすると気象観測と天気予報を参照できる。

マップの切り替え:黒色「×」印の緑ボタンをクリックして拡大、「-」印の緑ボタンをクリックして縮小、緑色の三角印をクリックして隣りの地図に切り替え


METAR-TAF: